Terminal Aerodrome Forecast
Issued by NWS Nashville, TN

Home | Current Version | Previous Version | Text Only | Print | Product List | Glossary On
Versions: 1 2 3 4 5 6 7 8 9 10 11 12 13 14 15 16 17 18 19 20 21 22 23 24 25 26 27 28 29 30 31 32 33 34 35 36
000
FTUS44 KOHX 252300
TAFCSV
TAF
KCSV 252337Z 2600/2624 30004KT P6SM SKC
     FM260500 00000KT 4SM BR SCT150
     FM260800 00000KT 2SM BR SCT150
     FM261400 24008KT P6SM BKN250=

USA.gov is the U.S. government's official web portal to all federal, state and local government web resources and services.